createdAt,value
2023-02-17T00:00:09.947Z,6.56
2023-02-17T00:01:09.933Z,6.52
2023-02-17T00:02:09.947Z,6.46
2023-02-17T00:03:09.941Z,6.45
2023-02-17T00:04:09.902Z,6.42
2023-02-17T00:05:09.880Z,6.39
2023-02-17T00:06:09.876Z,6.38
2023-02-17T00:07:09.854Z,6.33
2023-02-17T00:08:09.853Z,6.33
2023-02-17T00:09:09.834Z,6.31
2023-02-17T00:10:09.815Z,6.30
2023-02-17T00:11:09.812Z,6.28
2023-02-17T00:12:09.813Z,6.28
2023-02-17T00:13:09.785Z,6.27
2023-02-17T00:14:09.760Z,6.26
2023-02-17T00:15:09.756Z,6.20
2023-02-17T00:16:09.865Z,6.19
2023-02-17T00:17:09.740Z,6.16
2023-02-17T00:18:09.706Z,6.11
2023-02-17T00:19:09.718Z,6.08
2023-02-17T00:20:09.686Z,6.02
2023-02-17T00:21:09.677Z,6.01
2023-02-17T00:22:09.660Z,5.98
2023-02-17T00:23:09.645Z,5.94
2023-02-17T00:24:09.638Z,5.94
2023-02-17T00:25:09.624Z,5.91
2023-02-17T00:26:09.622Z,5.90
2023-02-17T00:27:09.600Z,5.87
2023-02-17T00:28:09.580Z,5.83
2023-02-17T00:29:09.569Z,5.79
2023-02-17T00:30:09.641Z,5.76
2023-02-17T00:31:09.689Z,5.72
2023-02-17T00:32:09.772Z,5.73
2023-02-17T00:33:09.515Z,5.69
2023-02-17T00:34:09.510Z,5.72
2023-02-17T00:35:09.520Z,5.68
2023-02-17T00:36:09.489Z,5.64
2023-02-17T00:37:09.465Z,5.56
2023-02-17T00:38:09.470Z,5.56
2023-02-17T00:39:09.445Z,5.53
2023-02-17T00:40:09.431Z,5.50
2023-02-17T00:41:09.422Z,5.48
2023-02-17T00:42:09.411Z,5.47
2023-02-17T00:43:09.400Z,5.46
2023-02-17T00:44:09.382Z,5.47
2023-02-17T00:45:09.372Z,5.44
2023-02-17T00:46:09.533Z,5.43
2023-02-17T00:47:09.346Z,5.44
2023-02-17T00:48:09.325Z,5.43
2023-02-17T00:49:09.311Z,5.41
2023-02-17T00:50:09.311Z,5.43
2023-02-17T00:51:09.312Z,5.41
2023-02-17T00:52:09.293Z,5.41
2023-02-17T00:53:09.273Z,5.43
2023-02-17T00:54:09.257Z,5.41
2023-02-17T00:55:09.295Z,5.43
2023-02-17T00:56:09.257Z,5.43
2023-02-17T00:57:09.208Z,5.44
2023-02-17T00:58:09.206Z,5.44
2023-02-17T00:59:09.188Z,5.44
2023-02-17T01:00:09.171Z,5.47
2023-02-17T01:01:09.159Z,5.46
2023-02-17T01:02:09.152Z,5.50
2023-02-17T01:03:09.140Z,5.47
2023-02-17T01:04:09.127Z,5.47
2023-02-17T01:05:09.121Z,5.44
2023-02-17T01:06:09.093Z,5.47
2023-02-17T01:07:09.111Z,5.44
2023-02-17T01:08:09.076Z,5.41
2023-02-17T01:09:09.053Z,5.43
2023-02-17T01:10:09.044Z,5.41
2023-02-17T01:11:09.035Z,5.38
2023-02-17T01:12:09.018Z,5.38
2023-02-17T01:13:09.000Z,5.33
2023-02-17T01:14:08.998Z,5.30
2023-02-17T01:15:08.987Z,5.25
2023-02-17T01:16:09.021Z,5.18
2023-02-17T01:17:08.964Z,5.12
2023-02-17T01:18:08.960Z,5.11
2023-02-17T01:19:08.954Z,5.07
2023-02-17T01:20:08.960Z,5.07
2023-02-17T01:21:08.906Z,4.99
2023-02-17T01:22:08.904Z,4.97
2023-02-17T01:23:08.924Z,4.92
2023-02-17T01:24:08.862Z,4.89
2023-02-17T01:25:08.862Z,4.87
2023-02-17T01:26:08.837Z,4.80
2023-02-17T01:27:08.832Z,4.78
2023-02-17T01:28:08.812Z,4.82
2023-02-17T01:29:08.805Z,4.78
2023-02-17T01:30:08.838Z,4.75
2023-02-17T01:31:08.925Z,4.78
2023-02-17T01:32:08.761Z,4.80
2023-02-17T01:33:08.753Z,4.82
2023-02-17T01:34:08.742Z,4.87
2023-02-17T01:35:08.731Z,4.89
2023-02-17T01:36:08.714Z,4.94
2023-02-17T01:37:08.699Z,4.97
2023-02-17T01:38:08.683Z,5.00
2023-02-17T01:39:08.707Z,5.11
2023-02-17T01:40:08.660Z,5.17
2023-02-17T01:41:08.640Z,5.18
2023-02-17T01:42:08.634Z,5.20
2023-02-17T01:43:08.618Z,5.23
2023-02-17T01:44:08.596Z,5.26
2023-02-17T01:45:08.585Z,5.30
2023-02-17T01:46:08.577Z,5.39
2023-02-17T01:47:08.554Z,5.44
2023-02-17T01:48:08.544Z,5.54
2023-02-17T01:49:08.538Z,5.64
2023-02-17T01:50:08.525Z,5.73
2023-02-17T01:51:08.505Z,5.80
2023-02-17T01:52:08.502Z,5.86
2023-02-17T01:53:08.491Z,5.89
2023-02-17T01:54:08.467Z,5.91
2023-02-17T01:55:08.480Z,5.98
2023-02-17T01:56:08.449Z,6.04
2023-02-17T01:57:08.433Z,6.09
2023-02-17T01:58:08.420Z,6.16
2023-02-17T01:59:08.416Z,6.16
2023-02-17T02:00:08.393Z,6.20
2023-02-17T02:01:08.376Z,6.27
2023-02-17T02:02:08.498Z,6.35
2023-02-17T02:03:08.369Z,6.39
2023-02-17T02:04:08.334Z,6.39
2023-02-17T02:05:08.331Z,6.51
2023-02-17T02:06:08.306Z,6.59
2023-02-17T02:07:08.303Z,6.62
2023-02-17T02:08:08.279Z,6.64
2023-02-17T02:09:08.276Z,6.66
2023-02-17T02:10:08.256Z,6.74
2023-02-17T02:11:08.272Z,6.79
2023-02-17T02:12:08.236Z,6.85
2023-02-17T02:13:08.221Z,6.88
2023-02-17T02:14:08.212Z,6.95
2023-02-17T02:15:08.195Z,6.99
2023-02-17T02:16:08.642Z,7.02
2023-02-17T02:17:08.200Z,6.99
2023-02-17T02:18:08.155Z,7.06
2023-02-17T02:19:08.152Z,7.05
2023-02-17T02:20:08.141Z,7.06
2023-02-17T02:21:08.118Z,7.10
2023-02-17T02:22:08.115Z,7.13
2023-02-17T02:23:08.102Z,7.14
2023-02-17T02:24:08.077Z,7.17
2023-02-17T02:25:08.073Z,7.17
2023-02-17T02:26:08.421Z,7.20
2023-02-17T02:27:08.064Z,7.21
2023-02-17T02:28:08.032Z,7.21
2023-02-17T02:29:08.016Z,7.23
2023-02-17T02:30:08.038Z,7.24
2023-02-17T02:31:08.032Z,7.29
2023-02-17T02:32:07.978Z,7.31
2023-02-17T02:33:07.980Z,7.32
2023-02-17T02:34:07.959Z,7.33
2023-02-17T02:35:07.948Z,7.33
2023-02-17T02:36:08.188Z,7.38
2023-02-17T02:37:07.913Z,7.38
2023-02-17T02:38:07.906Z,7.42
2023-02-17T02:39:07.892Z,7.45
2023-02-17T02:40:07.869Z,7.42
2023-02-17T02:41:07.869Z,7.45
2023-02-17T02:42:07.845Z,7.43
2023-02-17T02:43:07.865Z,7.47
2023-02-17T02:44:07.825Z,7.50
2023-02-17T02:45:07.814Z,7.56
2023-02-17T02:46:08.240Z,7.58
2023-02-17T02:47:07.786Z,7.60
2023-02-17T02:48:07.768Z,7.61
2023-02-17T02:49:07.766Z,7.60
2023-02-17T02:50:07.737Z,7.66
2023-02-17T02:51:07.734Z,7.66
2023-02-17T02:52:07.717Z,7.66
2023-02-17T02:53:07.699Z,7.70
2023-02-17T02:54:07.686Z,7.69
2023-02-17T02:55:07.671Z,7.66
2023-02-17T02:56:07.982Z,7.66
2023-02-17T02:57:07.650Z,7.63
2023-02-17T02:58:07.640Z,7.63
2023-02-17T02:59:07.642Z,7.60
2023-02-17T03:00:07.612Z,7.61
2023-02-17T03:01:07.704Z,7.66
2023-02-17T03:02:07.585Z,7.67
2023-02-17T03:03:07.564Z,7.70
2023-02-17T03:04:07.603Z,7.70
2023-02-17T03:05:07.552Z,7.73
2023-02-17T03:06:07.978Z,7.73
2023-02-17T03:07:07.509Z,7.75
2023-02-17T03:08:07.505Z,7.76
2023-02-17T03:09:07.500Z,7.76
2023-02-17T03:10:07.469Z,7.73
2023-02-17T03:11:07.464Z,7.73
2023-02-17T03:12:07.451Z,7.72
2023-02-17T03:13:07.438Z,7.67
2023-02-17T03:14:07.423Z,7.73
2023-02-17T03:15:07.437Z,7.75
2023-02-17T03:16:07.714Z,7.76
2023-02-17T03:17:07.387Z,7.75
2023-02-17T03:18:07.371Z,7.75
2023-02-17T03:19:07.364Z,7.75
2023-02-17T03:20:07.336Z,7.73
2023-02-17T03:21:07.335Z,7.72
2023-02-17T03:22:07.317Z,7.72
2023-02-17T03:23:07.330Z,7.73
2023-02-17T03:24:07.297Z,7.70
2023-02-17T03:25:07.271Z,7.73
2023-02-17T03:26:07.568Z,7.77
2023-02-17T03:27:07.263Z,7.77
2023-02-17T03:28:07.242Z,7.79
2023-02-17T03:29:07.234Z,7.80
2023-02-17T03:30:07.268Z,7.82
2023-02-17T03:31:07.292Z,7.85
2023-02-17T03:32:07.226Z,7.80
2023-02-17T03:33:07.164Z,7.82
2023-02-17T03:34:07.155Z,7.80
2023-02-17T03:35:07.143Z,7.82
2023-02-17T03:36:07.477Z,7.88
2023-02-17T03:37:07.108Z,7.87
2023-02-17T03:38:07.109Z,7.88
2023-02-17T03:39:07.089Z,7.88
2023-02-17T03:40:07.118Z,7.87
2023-02-17T03:41:07.058Z,7.85
2023-02-17T03:42:07.050Z,7.83
2023-02-17T03:43:07.039Z,7.85
2023-02-17T03:44:07.040Z,7.87
2023-02-17T03:45:07.034Z,7.88
2023-02-17T03:46:07.381Z,7.87
2023-02-17T03:47:07.005Z,7.85
2023-02-17T03:48:06.974Z,7.82
2023-02-17T03:49:06.963Z,7.82
2023-02-17T03:50:06.949Z,7.80
2023-02-17T03:51:06.931Z,7.80
2023-02-17T03:52:06.915Z,7.77
2023-02-17T03:53:06.899Z,7.76
2023-02-17T03:54:06.884Z,7.77
2023-02-17T03:55:06.878Z,7.75
2023-02-17T03:56:07.132Z,7.75
2023-02-17T03:57:06.858Z,7.73
2023-02-17T03:58:06.832Z,7.72
2023-02-17T03:59:06.826Z,7.70
2023-02-17T04:00:06.802Z,7.70
2023-02-17T04:01:06.907Z,7.70
2023-02-17T04:02:06.779Z,7.69
2023-02-17T04:03:06.812Z,7.69
2023-02-17T04:04:06.863Z,7.67
2023-02-17T04:05:06.747Z,7.69
2023-02-17T04:06:07.127Z,7.72
2023-02-17T04:07:06.706Z,7.70
2023-02-17T04:08:06.702Z,7.72
2023-02-17T04:09:06.695Z,7.72
2023-02-17T04:10:09.167Z,7.72
2023-02-17T04:11:06.668Z,7.70
2023-02-17T04:12:06.644Z,7.72
2023-02-17T04:13:06.658Z,7.69
2023-02-17T04:14:06.617Z,7.70
2023-02-17T04:15:06.618Z,7.67
2023-02-17T04:16:06.914Z,7.63
2023-02-17T04:17:06.575Z,7.67
2023-02-17T04:18:06.570Z,7.63
2023-02-17T04:19:06.585Z,7.60
2023-02-17T04:20:06.561Z,7.58
2023-02-17T04:21:06.531Z,7.57
2023-02-17T04:22:06.519Z,7.51
2023-02-17T04:23:06.497Z,7.50
2023-02-17T04:24:06.498Z,7.47
2023-02-17T04:25:06.483Z,7.45
2023-02-17T04:26:06.842Z,7.43
2023-02-17T04:27:06.452Z,7.42
2023-02-17T04:28:06.438Z,7.39
2023-02-17T04:29:06.420Z,7.38
2023-02-17T04:30:06.440Z,7.38
2023-02-17T04:31:06.538Z,7.33
2023-02-17T04:32:06.444Z,7.32
2023-02-17T04:33:06.368Z,7.29
2023-02-17T04:34:06.361Z,7.25
2023-02-17T04:35:06.386Z,7.24
2023-02-17T04:36:06.640Z,7.25
2023-02-17T04:37:06.328Z,7.23
2023-02-17T04:38:06.303Z,7.24
2023-02-17T04:39:06.301Z,7.24
2023-02-17T04:40:06.279Z,7.21
2023-02-17T04:41:06.324Z,7.20
2023-02-17T04:42:06.248Z,7.17
2023-02-17T04:43:06.254Z,7.17
2023-02-17T04:44:06.231Z,7.13
2023-02-17T04:45:06.216Z,7.10
2023-02-17T04:46:06.704Z,7.07
2023-02-17T04:47:06.200Z,7.10
2023-02-17T04:48:06.181Z,7.10
2023-02-17T04:49:06.166Z,7.10
2023-02-17T04:50:06.156Z,7.10
2023-02-17T04:51:07.185Z,7.10
2023-02-17T04:52:06.118Z,7.10
2023-02-17T04:53:06.105Z,7.11
2023-02-17T04:54:06.108Z,7.11
2023-02-17T04:55:06.089Z,7.11
2023-02-17T04:56:06.449Z,7.11
2023-02-17T04:57:06.054Z,7.11
2023-02-17T04:58:06.064Z,7.13
2023-02-17T04:59:06.030Z,7.15
2023-02-17T05:00:06.039Z,7.18
2023-02-17T05:01:06.059Z,7.21
2023-02-17T05:02:05.990Z,7.23
2023-02-17T05:03:05.976Z,7.25
2023-02-17T05:04:05.963Z,7.31
2023-02-17T05:05:06.012Z,7.35
2023-02-17T05:06:06.286Z,7.35
2023-02-17T05:07:05.960Z,7.33
2023-02-17T05:08:05.917Z,7.35
2023-02-17T05:09:05.904Z,7.35
2023-02-17T05:10:05.899Z,7.33
2023-02-17T05:11:05.872Z,7.35
2023-02-17T05:12:05.859Z,7.36
2023-02-17T05:13:05.856Z,7.35
2023-02-17T05:14:05.836Z,7.38
2023-02-17T05:15:05.833Z,7.39
2023-02-17T05:16:06.210Z,7.38
2023-02-17T05:17:05.801Z,7.35
2023-02-17T05:18:05.801Z,7.38
2023-02-17T05:19:05.785Z,7.38
2023-02-17T05:20:05.770Z,7.39
2023-02-17T05:21:05.751Z,7.42
2023-02-17T05:22:05.727Z,7.48
2023-02-17T05:23:05.747Z,7.50
2023-02-17T05:24:05.712Z,7.53
2023-02-17T05:25:05.700Z,7.51
2023-02-17T05:26:06.101Z,7.51
2023-02-17T05:27:05.681Z,7.51
2023-02-17T05:28:05.665Z,7.50
2023-02-17T05:29:05.642Z,7.51
2023-02-17T05:30:05.659Z,7.51
2023-02-17T05:31:05.700Z,7.53
2023-02-17T05:32:05.640Z,7.56
2023-02-17T05:33:05.595Z,7.56
2023-02-17T05:34:05.581Z,7.56
2023-02-17T05:35:05.564Z,7.57
2023-02-17T05:36:05.938Z,7.58
2023-02-17T05:37:05.546Z,7.61
2023-02-17T05:38:05.528Z,7.63
2023-02-17T05:39:05.540Z,7.67
2023-02-17T05:40:05.503Z,7.69
2023-02-17T05:41:05.490Z,7.66
2023-02-17T05:42:05.483Z,7.70
2023-02-17T05:43:05.460Z,7.70
2023-02-17T05:44:05.475Z,7.73
2023-02-17T05:45:05.437Z,7.72
2023-02-17T05:46:05.862Z,7.76
2023-02-17T05:47:05.408Z,7.76
2023-02-17T05:48:05.420Z,7.79
2023-02-17T05:49:05.395Z,7.77
2023-02-17T05:50:05.384Z,7.79
2023-02-17T05:51:05.361Z,7.80
2023-02-17T05:52:05.353Z,7.80
2023-02-17T05:53:05.341Z,7.79
2023-02-17T05:54:05.321Z,7.80
2023-02-17T05:55:05.372Z,7.77
2023-02-17T05:56:05.750Z,7.77
2023-02-17T05:57:05.279Z,7.77
2023-02-17T05:58:05.279Z,7.76
2023-02-17T05:59:05.254Z,7.76
2023-02-17T06:00:05.266Z,7.77
2023-02-17T06:01:05.241Z,7.75
2023-02-17T06:02:05.218Z,7.73
2023-02-17T06:03:05.249Z,7.73
2023-02-17T06:04:05.200Z,7.72
2023-02-17T06:05:05.259Z,7.72
2023-02-17T06:06:05.520Z,7.70
2023-02-17T06:07:05.159Z,7.69
2023-02-17T06:08:05.161Z,7.70
2023-02-17T06:09:05.137Z,7.67
2023-02-17T06:10:05.114Z,7.69
2023-02-17T06:11:05.127Z,7.67
2023-02-17T06:12:05.098Z,7.66
2023-02-17T06:13:05.076Z,7.63
2023-02-17T06:14:05.066Z,7.61
2023-02-17T06:15:05.056Z,7.60
2023-02-17T06:16:05.561Z,7.58
2023-02-17T06:17:05.045Z,7.58
2023-02-17T06:18:05.012Z,7.54
2023-02-17T06:19:05.007Z,7.51
2023-02-17T06:20:04.999Z,7.51
2023-02-17T06:21:04.973Z,7.50
2023-02-17T06:22:04.971Z,7.50
2023-02-17T06:23:04.956Z,7.50
2023-02-17T06:24:04.941Z,7.51
2023-02-17T06:25:04.928Z,7.48
2023-02-17T06:26:05.278Z,7.50
2023-02-17T06:27:04.925Z,7.50
2023-02-17T06:28:04.896Z,7.51
2023-02-17T06:29:04.876Z,7.53
2023-02-17T06:30:04.885Z,7.54
2023-02-17T06:31:04.920Z,7.54
2023-02-17T06:32:04.915Z,7.58
2023-02-17T06:33:04.818Z,7.61
2023-02-17T06:34:06.645Z,7.63
2023-02-17T06:35:04.791Z,7.66
2023-02-17T06:36:05.242Z,7.66
2023-02-17T06:37:04.766Z,7.69
2023-02-17T06:38:04.857Z,7.73
2023-02-17T06:39:04.731Z,7.76
2023-02-17T06:40:04.729Z,7.77
2023-02-17T06:41:04.729Z,7.79
2023-02-17T06:42:04.693Z,7.80
2023-02-17T06:43:04.708Z,7.82
2023-02-17T06:44:04.675Z,7.87
2023-02-17T06:45:04.656Z,7.88
2023-02-17T06:46:05.077Z,7.93
2023-02-17T06:47:04.635Z,7.93
2023-02-17T06:48:04.630Z,7.98
2023-02-17T06:49:04.611Z,8.01
2023-02-17T06:50:04.590Z,8.00
2023-02-17T06:51:04.584Z,8.03
2023-02-17T06:52:04.569Z,8.03
2023-02-17T06:53:04.554Z,8.03
2023-02-17T06:54:04.541Z,8.06
2023-02-17T06:55:04.529Z,8.08
2023-02-17T06:56:04.944Z,8.12
2023-02-17T06:57:04.505Z,8.13
2023-02-17T06:58:04.491Z,8.18
2023-02-17T06:59:04.528Z,8.23
2023-02-17T07:00:04.476Z,8.27
2023-02-17T07:01:04.455Z,8.30
2023-02-17T07:02:04.554Z,8.34
2023-02-17T07:03:04.621Z,8.36
2023-02-17T07:04:04.407Z,8.37
2023-02-17T07:05:04.398Z,8.38
2023-02-17T07:06:04.639Z,8.41
2023-02-17T07:07:04.379Z,8.42
2023-02-17T07:08:04.377Z,8.44
2023-02-17T07:09:04.352Z,8.45
2023-02-17T07:10:04.334Z,8.45
2023-02-17T07:11:04.328Z,8.48
2023-02-17T07:12:04.314Z,8.49
2023-02-17T07:13:04.307Z,8.51
2023-02-17T07:14:04.295Z,8.53
2023-02-17T07:15:04.303Z,8.52
2023-02-17T07:16:04.534Z,8.52
2023-02-17T07:17:04.245Z,8.55
2023-02-17T07:18:04.244Z,8.53
2023-02-17T07:19:04.232Z,8.56
2023-02-17T07:20:04.214Z,8.56
2023-02-17T07:21:04.194Z,8.58
2023-02-17T07:22:04.183Z,8.55
2023-02-17T07:23:04.177Z,8.60
2023-02-17T07:24:04.156Z,8.60
2023-02-17T07:25:04.153Z,8.63
2023-02-17T07:26:04.668Z,8.64
2023-02-17T07:27:04.133Z,8.64
2023-02-17T07:28:04.128Z,8.64
2023-02-17T07:29:04.092Z,8.64
2023-02-17T07:30:04.136Z,8.67
2023-02-17T07:31:04.141Z,8.70
2023-02-17T07:32:04.222Z,8.73
2023-02-17T07:33:06.648Z,8.74
2023-02-17T07:34:04.037Z,8.78
2023-02-17T07:35:04.028Z,8.84
2023-02-17T07:36:04.388Z,8.87
2023-02-17T07:37:04.012Z,8.91
2023-02-17T07:38:03.993Z,8.92
2023-02-17T07:39:03.977Z,8.91
2023-02-17T07:40:03.966Z,8.91
2023-02-17T07:41:03.953Z,8.91
2023-02-17T07:42:03.920Z,8.88
2023-02-17T07:43:03.925Z,8.91
2023-02-17T07:44:03.919Z,8.91
2023-02-17T07:45:03.889Z,8.89
2023-02-17T07:46:04.146Z,8.89
2023-02-17T07:47:03.910Z,8.89
2023-02-17T07:48:03.847Z,8.87
2023-02-17T07:49:03.846Z,8.88
2023-02-17T07:50:03.837Z,8.89
2023-02-17T07:51:03.830Z,8.88
2023-02-17T07:52:05.281Z,8.89
2023-02-17T07:53:03.788Z,8.91
2023-02-17T07:54:03.777Z,8.92
2023-02-17T07:55:03.773Z,8.92
2023-02-17T07:56:03.759Z,8.92
2023-02-17T07:57:03.754Z,8.92
2023-02-17T07:58:03.715Z,8.95
2023-02-17T07:59:03.703Z,8.94
2023-02-17T08:00:03.732Z,8.95
2023-02-17T08:01:03.686Z,8.95
2023-02-17T08:02:03.695Z,8.99
2023-02-17T08:03:03.702Z,9.00
2023-02-17T08:04:03.712Z,9.02
2023-02-17T08:05:03.631Z,8.99
2023-02-17T08:06:03.619Z,9.00
2023-02-17T08:07:03.611Z,9.00
2023-02-17T08:08:03.601Z,9.03
2023-02-17T08:09:03.578Z,9.00
2023-02-17T08:10:03.577Z,9.00
2023-02-17T08:11:03.565Z,9.00
2023-02-17T08:12:03.552Z,9.02
2023-02-17T08:13:03.543Z,9.02
2023-02-17T08:14:03.518Z,9.00
2023-02-17T08:15:03.527Z,9.02
2023-02-17T08:16:03.492Z,9.06
2023-02-17T08:17:03.473Z,9.08
2023-02-17T08:18:03.496Z,9.11
2023-02-17T08:19:03.483Z,9.11
2023-02-17T08:20:08.661Z,9.16
2023-02-17T08:21:03.789Z,9.21
2023-02-17T08:22:03.441Z,9.22
2023-02-17T08:23:03.424Z,9.26
2023-02-17T08:24:03.400Z,9.31
2023-02-17T08:25:03.396Z,9.36
2023-02-17T08:26:03.454Z,9.40
2023-02-17T08:27:03.350Z,9.43
2023-02-17T08:28:03.348Z,9.46
2023-02-17T08:29:03.327Z,9.47
2023-02-17T08:30:03.418Z,9.50
2023-02-17T08:31:03.474Z,9.51
2023-02-17T08:32:03.492Z,9.54
2023-02-17T08:33:03.266Z,9.56
2023-02-17T08:34:03.289Z,9.56
2023-02-17T08:35:03.302Z,9.58
2023-02-17T08:36:03.253Z,9.62
2023-02-17T08:37:03.232Z,9.64
2023-02-17T08:38:03.232Z,9.65
2023-02-17T08:39:03.189Z,9.66
2023-02-17T08:40:03.193Z,9.68
2023-02-17T08:41:03.171Z,9.69
2023-02-17T08:42:03.201Z,9.69
2023-02-17T08:43:03.774Z,9.72
2023-02-17T08:44:03.141Z,9.72
2023-02-17T08:45:03.173Z,9.72
2023-02-17T08:46:03.140Z,9.74
2023-02-17T08:47:03.136Z,9.80
2023-02-17T08:48:03.119Z,9.87
2023-02-17T08:49:03.080Z,9.92
2023-02-17T08:50:03.120Z,9.94
2023-02-17T08:51:03.066Z,9.94
2023-02-17T08:52:03.059Z,9.94
2023-02-17T08:53:03.032Z,9.95
2023-02-17T08:54:03.046Z,9.94
2023-02-17T08:55:02.998Z,9.87
2023-02-17T08:56:02.984Z,9.84
2023-02-17T08:57:03.000Z,9.82
2023-02-17T08:58:03.076Z,9.77
2023-02-17T08:59:02.961Z,9.74
2023-02-17T09:00:04.852Z,9.69
2023-02-17T09:01:03.020Z,9.69
2023-02-17T09:02:02.926Z,9.72
2023-02-17T09:03:02.972Z,9.73
2023-02-17T09:04:02.910Z,9.73
2023-02-17T09:05:02.914Z,9.73
2023-02-17T09:06:02.852Z,9.74
2023-02-17T09:07:02.889Z,9.79
2023-02-17T09:08:02.845Z,9.82
2023-02-17T09:09:02.865Z,9.84
2023-02-17T09:10:02.804Z,9.87
2023-02-17T09:11:02.853Z,9.89
2023-02-17T09:12:02.802Z,9.94
2023-02-17T09:13:02.768Z,9.95
2023-02-17T09:14:02.750Z,9.99
2023-02-17T09:15:02.743Z,10.01
2023-02-17T09:16:02.873Z,10.02
2023-02-17T09:17:02.715Z,10.04
2023-02-17T09:18:02.728Z,10.02
2023-02-17T09:19:02.745Z,9.99
2023-02-17T09:20:02.765Z,9.98
2023-02-17T09:21:02.725Z,9.99
2023-02-17T09:22:02.648Z,9.94
2023-02-17T09:23:02.745Z,9.89
2023-02-17T09:24:02.689Z,9.86
2023-02-17T09:25:02.648Z,9.83
2023-02-17T09:26:02.648Z,9.80
2023-02-17T09:27:02.643Z,9.82
2023-02-17T09:28:02.576Z,9.80
2023-02-17T09:29:02.574Z,9.82
2023-02-17T09:30:02.646Z,9.83
2023-02-17T09:31:02.650Z,9.83
2023-02-17T09:32:02.722Z,9.82
2023-02-17T09:33:02.540Z,9.80
2023-02-17T09:34:02.505Z,9.80
2023-02-17T09:35:02.525Z,9.80
2023-02-17T09:36:02.471Z,9.82
2023-02-17T09:37:02.466Z,9.82
2023-02-17T09:38:02.474Z,9.86
2023-02-17T09:39:02.497Z,9.89
2023-02-17T09:40:02.422Z,9.89
2023-02-17T09:41:02.404Z,9.94
2023-02-17T09:42:02.451Z,9.98
2023-02-17T09:43:02.394Z,10.02
2023-02-17T09:44:02.441Z,10.04
2023-02-17T09:45:02.442Z,10.07
2023-02-17T09:46:02.447Z,10.09
2023-02-17T09:47:02.971Z,10.12
2023-02-17T09:48:02.329Z,10.15
2023-02-17T09:49:02.376Z,10.17
2023-02-17T09:50:02.355Z,10.17
2023-02-17T09:51:02.304Z,10.25
2023-02-17T09:52:02.333Z,10.31
2023-02-17T09:53:02.276Z,10.37
2023-02-17T09:54:02.259Z,10.53
2023-02-17T09:55:02.245Z,10.61
2023-02-17T09:56:02.245Z,10.79
2023-02-17T09:57:02.205Z,10.97
2023-02-17T09:58:02.184Z,11.07
2023-02-17T09:59:02.217Z,11.17
2023-02-17T10:00:02.195Z,11.25
2023-02-17T10:01:02.237Z,11.08
2023-02-17T10:02:02.141Z,11.02
2023-02-17T10:03:02.115Z,11.05
2023-02-17T10:04:02.219Z,11.02
2023-02-17T10:05:02.197Z,10.99
2023-02-17T10:06:02.107Z,10.97
2023-02-17T10:07:02.073Z,10.87
2023-02-17T10:08:02.131Z,10.86
2023-02-17T10:09:02.135Z,10.79
2023-02-17T10:10:02.145Z,10.74
2023-02-17T10:11:02.036Z,10.74
2023-02-17T10:12:02.007Z,10.74
2023-02-17T10:13:02.028Z,10.71
2023-02-17T10:14:02.004Z,10.72
2023-02-17T10:15:01.976Z,10.81
2023-02-17T10:16:02.061Z,10.92
2023-02-17T10:17:01.953Z,11.04
2023-02-17T10:18:01.940Z,11.15
2023-02-17T10:19:01.961Z,11.29
2023-02-17T10:20:01.974Z,11.43
2023-02-17T10:21:01.901Z,11.60
2023-02-17T10:22:01.921Z,11.77
2023-02-17T10:23:01.898Z,11.87
2023-02-17T10:24:01.856Z,11.90
2023-02-17T10:25:01.864Z,11.87
2023-02-17T10:26:01.824Z,11.91
2023-02-17T10:27:01.931Z,11.91
2023-02-17T10:28:01.804Z,11.90
2023-02-17T10:29:01.789Z,11.84
2023-02-17T10:30:01.929Z,11.75
2023-02-17T10:31:02.015Z,11.57
2023-02-17T10:32:01.879Z,11.45
2023-02-17T10:33:01.790Z,11.37
2023-02-17T10:34:01.740Z,11.29
2023-02-17T10:35:01.764Z,11.22
2023-02-17T10:36:01.729Z,11.07
2023-02-17T10:37:01.733Z,11.00
2023-02-17T10:38:01.673Z,10.97
2023-02-17T10:39:01.667Z,10.94
2023-02-17T10:40:01.660Z,10.89
2023-02-17T10:41:01.637Z,10.87
2023-02-17T10:42:01.623Z,10.82
2023-02-17T10:43:01.621Z,10.79
2023-02-17T10:44:01.601Z,10.78
2023-02-17T10:45:01.658Z,10.78
2023-02-17T10:46:01.572Z,10.79
2023-02-17T10:47:01.560Z,10.84
2023-02-17T10:48:01.535Z,10.87
2023-02-17T10:49:01.529Z,10.90
2023-02-17T10:50:01.529Z,10.96
2023-02-17T10:51:01.503Z,10.99
2023-02-17T10:52:01.491Z,11.00
2023-02-17T10:53:01.478Z,11.02
2023-02-17T10:54:01.477Z,11.02
2023-02-17T10:55:06.429Z,11.00
2023-02-17T10:56:02.513Z,11.00
2023-02-17T10:57:01.433Z,11.00
2023-02-17T10:58:01.415Z,10.99
2023-02-17T10:59:01.415Z,10.93
2023-02-17T11:00:01.385Z,10.87
2023-02-17T11:01:01.419Z,10.89
2023-02-17T11:02:01.372Z,10.84
2023-02-17T11:03:01.344Z,10.84
2023-02-17T11:04:01.416Z,10.82
2023-02-17T11:05:01.332Z,10.79
2023-02-17T11:06:01.306Z,10.82
2023-02-17T11:07:01.299Z,10.79
2023-02-17T11:08:01.280Z,10.82
2023-02-17T11:09:01.274Z,10.82
2023-02-17T11:10:01.250Z,10.84
2023-02-17T11:11:01.256Z,10.86
2023-02-17T11:12:01.241Z,10.87
2023-02-17T11:13:01.223Z,10.90
2023-02-17T11:14:01.212Z,10.92
2023-02-17T11:15:01.211Z,10.94
2023-02-17T11:16:01.224Z,10.93
2023-02-17T11:17:01.162Z,10.92
2023-02-17T11:18:01.160Z,10.92
2023-02-17T11:19:01.137Z,10.92
2023-02-17T11:20:01.134Z,10.92
2023-02-17T11:21:01.121Z,10.89
2023-02-17T11:22:01.100Z,10.89
2023-02-17T11:23:01.091Z,10.87
2023-02-17T11:24:01.100Z,10.87
2023-02-17T11:25:01.070Z,10.87
2023-02-17T11:26:01.046Z,10.81
2023-02-17T11:27:01.046Z,10.82
2023-02-17T11:28:01.029Z,10.82
2023-02-17T11:29:01.015Z,10.81
2023-02-17T11:30:01.032Z,10.82
2023-02-17T11:31:01.048Z,10.82
2023-02-17T11:32:01.075Z,10.81
2023-02-17T11:33:00.967Z,10.81
2023-02-17T11:34:00.947Z,10.81
2023-02-17T11:35:00.951Z,10.81
2023-02-17T11:36:00.936Z,10.86
2023-02-17T11:37:00.929Z,10.86
2023-02-17T11:38:00.912Z,10.90
2023-02-17T11:39:00.901Z,10.92
2023-02-17T11:40:00.886Z,10.94
2023-02-17T11:41:00.892Z,10.94
2023-02-17T11:42:00.845Z,10.94
2023-02-17T11:43:00.851Z,10.97
2023-02-17T11:44:00.862Z,10.97
2023-02-17T11:45:00.820Z,10.97
2023-02-17T11:46:01.122Z,11.02
2023-02-17T11:47:00.813Z,11.04
2023-02-17T11:48:00.768Z,11.04
2023-02-17T11:49:00.759Z,11.05
2023-02-17T11:50:00.746Z,11.05
2023-02-17T11:51:00.737Z,11.05
2023-02-17T11:52:00.716Z,11.10
2023-02-17T11:53:00.711Z,11.12
2023-02-17T11:54:00.700Z,11.15
2023-02-17T11:55:00.686Z,11.18
2023-02-17T11:56:00.673Z,11.19
2023-02-17T11:57:00.666Z,11.23
2023-02-17T11:58:00.643Z,11.29
2023-02-17T11:59:00.626Z,11.35
2023-02-17T12:00:00.630Z,11.37
2023-02-17T12:01:00.603Z,11.41
2023-02-17T12:02:00.601Z,11.44
2023-02-17T12:03:00.641Z,11.45
2023-02-17T12:04:00.568Z,11.43
2023-02-17T12:05:00.656Z,11.45
2023-02-17T12:06:00.536Z,11.45
2023-02-17T12:07:00.525Z,11.41
2023-02-17T12:08:00.506Z,11.35
2023-02-17T12:09:00.500Z,11.30
2023-02-17T12:10:00.501Z,11.29
2023-02-17T12:11:00.460Z,11.33
2023-02-17T12:12:00.454Z,11.37
2023-02-17T12:13:00.445Z,11.41
2023-02-17T12:14:00.431Z,11.43
2023-02-17T12:15:00.428Z,11.47
2023-02-17T12:16:00.412Z,11.47
2023-02-17T12:17:00.396Z,11.50
2023-02-17T12:18:00.374Z,11.52
2023-02-17T12:19:00.388Z,11.52
2023-02-17T12:20:00.346Z,11.55
2023-02-17T12:21:00.335Z,11.57
2023-02-17T12:22:00.321Z,11.59
2023-02-17T12:23:00.307Z,11.59
2023-02-17T12:24:00.297Z,11.65
2023-02-17T12:25:00.291Z,11.69
2023-02-17T12:26:00.271Z,11.70
2023-02-17T12:27:00.264Z,11.70
2023-02-17T12:28:00.247Z,11.72
2023-02-17T12:29:00.237Z,11.73
2023-02-17T12:30:00.310Z,11.77
2023-02-17T12:31:00.415Z,11.77
2023-02-17T12:32:00.437Z,11.78
2023-02-17T12:33:00.186Z,11.75
2023-02-17T12:34:00.178Z,11.75
2023-02-17T12:35:00.175Z,11.75
2023-02-17T12:36:00.161Z,11.77
2023-02-17T12:37:00.135Z,11.80
2023-02-17T12:38:00.125Z,11.77
2023-02-17T12:39:00.123Z,11.77
2023-02-17T12:40:00.116Z,11.81
2023-02-17T12:41:00.137Z,11.84
2023-02-17T12:42:00.098Z,11.83
2023-02-17T12:43:00.097Z,11.86
2023-02-17T12:44:00.068Z,11.86
2023-02-17T12:45:00.034Z,11.84
2023-02-17T12:46:00.063Z,11.84
2023-02-17T12:47:00.010Z,11.80
2023-02-17T12:47:59.989Z,11.80
2023-02-17T12:48:59.977Z,11.81
2023-02-17T12:49:59.965Z,11.83
2023-02-17T12:50:59.980Z,11.78
2023-02-17T12:51:59.952Z,11.77
2023-02-17T12:52:59.923Z,11.75
2023-02-17T12:53:59.914Z,11.77
2023-02-17T12:54:59.905Z,11.81
2023-02-17T12:55:59.899Z,11.84
2023-02-17T12:56:59.901Z,11.83
2023-02-17T12:57:59.865Z,11.83
2023-02-17T12:58:59.849Z,11.83
2023-02-17T12:59:59.841Z,11.80
2023-02-17T13:00:59.869Z,11.73
2023-02-17T13:01:59.815Z,11.72
2023-02-17T13:02:59.820Z,11.73
2023-02-17T13:03:59.783Z,11.73
2023-02-17T13:04:59.780Z,11.72
2023-02-17T13:05:59.768Z,11.66
2023-02-17T13:06:59.783Z,11.68
2023-02-17T13:07:59.738Z,11.70
2023-02-17T13:08:59.725Z,11.68
2023-02-17T13:09:59.724Z,11.68
2023-02-17T13:10:59.725Z,11.68